Metar Aviation Weather Data EGNJ

16°C Temp
12°C Dewpoint
% Humidity
Temperature
8 KM/H
5 MPH
4 KTS
220°
South West

Wind Speed
Overcast
Conditions
Pressure 1004.92 (hPa) - 29.68 (in)
Visibility 6.2 (mi) - 10 (km)

Current Conditions
EGNJ
Metar :EGNJ 230050Z AUTO 22004KT 9999 OVC036/// 16/12 Q1005
Mon 23rd May 01:50 am

  Metar Aviation API Data Provided by https://www.checkwx.com/ PHP scripts by weather34.com ©2022